Time;durP1;ratioP1;P1;durP2;ratioP2;P2;SDS_P1;SDS_P2;PMS_P1;PMS_P2;Temp;Humidity;BMP_temperature;BMP_pressure;BME280_temperature;BME280_humidity;BME280_pressure;Samples;Min_cycle;Max_cycle;Signal;HPM_P1;HPM_P2
2023/11/21 00:04:45;;;;;;;9.90;5.70;;;;;;;10.80;78.71;98128.12;234178;213;138422;-58
2023/11/21 00:09:48;;;;;;;9.00;5.60;;;;;;;10.77;78.54;98135.59;234177;208;147374;-57
2023/11/21 00:14:51;;;;;;;10.30;5.40;;;;;;;10.75;78.56;98143.73;234202;213;138966;-59
2023/11/21 00:19:59;;;;;;;7.40;4.60;;;;;;;10.75;78.68;98149.06;234240;213;137659;-59
2023/11/21 00:25:05;;;;;;;174.30;115.40;;;;;;;10.77;78.68;98155.45;234321;215;147596;-61
2023/11/21 00:30:09;;;;;;;7.60;4.90;;;;;;;10.89;78.51;98158.27;234284;212;139329;-60
2023/11/21 00:35:12;;;;;;;7.50;5.00;;;;;;;10.89;78.08;98155.41;233974;215;137007;-60
2023/11/21 00:40:15;;;;;;;8.30;4.60;;;;;;;10.85;78.19;98153.63;234060;213;146681;-61
2023/11/21 00:45:18;;;;;;;10.80;4.50;;;;;;;10.80;78.19;98157.90;234374;213;139054;-61
2023/11/21 00:50:22;;;;;;;6.40;3.90;;;;;;;10.76;78.24;98159.80;234339;215;137728;-61
2023/11/21 00:55:26;;;;;;;6.70;3.80;;;;;;;10.78;78.24;98159.68;234267;215;147588;-61
2023/11/21 01:00:29;;;;;;;7.80;4.10;;;;;;;10.83;77.96;98159.27;234360;215;138820;-61
2023/11/21 01:05:32;;;;;;;6.50;3.80;;;;;;;10.85;77.66;98156.43;234292;213;137383;-61
2023/11/21 01:10:36;;;;;;;6.40;3.70;;;;;;;10.83;77.73;98159.95;234261;215;148689;-61
2023/11/21 01:15:39;;;;;;;5.90;3.60;;;;;;;10.81;77.81;98157.83;234273;212;138844;-61
2023/11/21 01:20:42;;;;;;;4.30;3.20;;;;;;;10.75;77.94;98159.02;234334;216;138791;-61
2023/11/21 01:25:45;;;;;;;4.10;2.90;;;;;;;10.71;78.11;98154.75;234322;215;147412;-61
2023/11/21 01:30:49;;;;;;;5.00;2.70;;;;;;;10.76;78.04;98153.08;234432;216;140081;-61
2023/11/21 01:35:55;;;;;;;5.10;2.90;;;;;;;10.80;77.92;98156.13;234391;216;138489;-61
2023/11/21 01:41:00;;;;;;;3.80;2.40;;;;;;;10.81;77.75;98154.83;234053;216;147598;-61
2023/11/21 01:46:06;;;;;;;4.20;2.50;;;;;;;10.79;77.57;98160.34;234104;215;139487;-61
2023/11/21 01:51:09;;;;;;;5.10;2.80;;;;;;;10.77;77.24;98158.55;234117;216;137313;-61
2023/11/21 01:56:13;;;;;;;5.70;2.80;;;;;;;10.72;77.36;98161.59;234037;214;148106;-61
2023/11/21 02:01:19;;;;;;;6.40;3.10;;;;;;;10.76;77.32;98165.14;234327;215;140726;-61
2023/11/21 02:06:22;;;;;;;5.10;3.10;;;;;;;10.79;77.09;98162.28;234407;213;137302;-61
2023/11/21 02:11:27;;;;;;;6.80;3.10;;;;;;;10.79;77.05;98162.95;234340;215;147780;-61
2023/11/21 02:16:31;;;;;;;6.00;3.30;;;;;;;10.72;77.07;98159.28;234270;215;139458;-62
2023/11/21 02:21:36;;;;;;;7.30;3.60;;;;;;;10.65;77.45;98155.69;234217;209;138390;-61
2023/11/21 02:26:40;;;;;;;7.00;3.80;;;;;;;10.65;77.79;98156.39;234287;216;147422;-61
2023/11/21 02:31:47;;;;;;;5.20;3.40;;;;;;;10.65;78.17;98160.65;234274;215;139114;-61
2023/11/21 02:36:51;;;;;;;6.20;3.80;;;;;;;10.74;78.25;98167.42;234507;208;138118;-62
2023/11/21 02:41:54;;;;;;;6.10;3.80;;;;;;;10.76;78.02;98165.13;234294;213;148398;-62
2023/11/21 02:46:57;;;;;;;6.60;3.80;;;;;;;10.70;78.00;98162.42;234226;216;139587;-61
2023/11/21 02:52:01;;;;;;;7.40;3.70;;;;;;;10.64;78.09;98163.02;234270;215;140552;-63
2023/11/21 02:57:05;;;;;;;6.80;3.90;;;;;;;10.63;78.24;98166.33;234371;213;147551;-61
2023/11/21 03:02:08;;;;;;;6.50;4.00;;;;;;;10.66;77.98;98166.98;234239;215;139231;-62
2023/11/21 03:07:12;;;;;;;6.80;3.80;;;;;;;10.64;77.44;98170.67;234304;215;139052;-62
2023/11/21 03:12:15;;;;;;;6.10;3.20;;;;;;;10.60;77.18;98172.37;234453;216;148888;-61
2023/11/21 03:17:18;;;;;;;6.00;3.40;;;;;;;10.56;76.65;98176.25;234178;213;139674;-61
2023/11/21 03:22:22;;;;;;;5.20;2.70;;;;;;;10.53;76.39;98176.48;234332;215;137700;-61
2023/11/21 03:27:25;;;;;;;5.50;2.90;;;;;;;10.53;76.28;98177.38;234293;215;148821;-61
2023/11/21 03:32:28;;;;;;;7.60;3.20;;;;;;;10.55;76.23;98172.38;234314;216;139581;-61
2023/11/21 03:37:31;;;;;;;4.80;2.80;;;;;;;10.54;76.32;98180.10;234247;216;137366;-62
2023/11/21 03:42:35;;;;;;;6.10;3.10;;;;;;;10.53;76.12;98179.98;234412;214;148046;-62
2023/11/21 03:47:39;;;;;;;4.90;3.20;;;;;;;10.49;76.06;98185.64;234219;213;139758;-62
2023/11/21 03:52:42;;;;;;;7.40;3.70;;;;;;;10.49;76.24;98190.12;234380;215;138219;-62
2023/11/21 03:57:45;;;;;;;7.60;3.20;;;;;;;10.49;76.11;98192.38;234315;213;147680;-61
2023/11/21 04:02:50;;;;;;;8.20;3.50;;;;;;;10.48;76.11;98190.66;234421;215;138673;-61
2023/11/21 04:07:54;;;;;;;4.80;2.90;;;;;;;10.48;75.81;98188.17;234247;216;138988;-62
2023/11/21 04:12:57;;;;;;;5.70;3.00;;;;;;;10.44;75.75;98187.08;234382;215;147169;-61
2023/11/21 04:18:00;;;;;;;4.30;2.70;;;;;;;10.37;75.66;98190.95;234367;216;139803;-62
2023/11/21 04:23:03;;;;;;;5.70;3.10;;;;;;;10.35;75.86;98193.99;234273;215;136727;-62
2023/11/21 04:28:06;;;;;;;6.10;2.50;;;;;;;10.34;75.79;98196.51;234255;213;147410;-61
2023/11/21 04:33:09;;;;;;;4.70;2.50;;;;;;;10.31;75.80;98193.93;234288;214;139720;-61
2023/11/21 04:38:12;;;;;;;6.40;2.70;;;;;;;10.35;75.91;98192.77;234314;213;138633;-61
2023/11/21 04:43:16;;;;;;;9.20;2.90;;;;;;;10.39;76.01;98196.82;234286;215;147590;-61
2023/11/21 04:48:19;;;;;;;6.00;3.10;;;;;;;10.35;75.94;98208.50;234397;214;138809;-62
2023/11/21 04:53:22;;;;;;;4.60;3.10;;;;;;;10.32;76.09;98214.92;234187;212;138027;-61
2023/11/21 04:58:25;;;;;;;5.00;3.20;;;;;;;10.28;76.00;98221.23;234399;213;149392;-61
2023/11/21 05:03:29;;;;;;;5.30;2.60;;;;;;;10.21;76.13;98220.17;234368;215;138986;-62
2023/11/21 05:08:33;;;;;;;4.10;2.80;;;;;;;10.24;76.29;98221.91;234203;215;139577;-62
2023/11/21 05:13:37;;;;;;;6.90;3.20;;;;;;;10.34;76.21;98221.86;234061;216;147342;-62
2023/11/21 05:18:40;;;;;;;5.50;3.20;;;;;;;10.34;76.04;98226.31;234351;215;139183;-61
2023/11/21 05:23:43;;;;;;;4.80;3.10;;;;;;;10.31;76.12;98230.98;234268;215;138279;-61
2023/11/21 05:28:46;;;;;;;4.70;3.10;;;;;;;10.24;76.18;98230.42;234300;215;146746;-61
2023/11/21 05:33:49;;;;;;;5.90;3.30;;;;;;;10.16;76.37;98235.00;234353;213;138876;-61
2023/11/21 05:38:53;;;;;;;6.10;3.40;;;;;;;10.16;76.57;98242.80;234236;214;138952;-61
2023/11/21 05:43:56;;;;;;;4.50;2.90;;;;;;;10.24;76.41;98248.84;234246;216;148717;-61
2023/11/21 05:48:59;;;;;;;6.10;3.40;;;;;;;10.23;76.12;98256.33;234446;215;138861;-60
2023/11/21 05:54:03;;;;;;;7.10;3.60;;;;;;;10.25;76.11;98264.39;234558;215;137998;-62
2023/11/21 05:59:06;;;;;;;5.90;3.50;;;;;;;10.17;76.09;98270.59;234195;215;148024;-61
2023/11/21 06:04:10;;;;;;;5.20;3.70;;;;;;;10.12;76.44;98271.70;233899;215;139444;-62
2023/11/21 06:09:13;;;;;;;7.10;3.50;;;;;;;10.08;76.69;98277.98;234246;216;138267;-62
2023/11/21 06:14:17;;;;;;;94.30;64.00;;;;;;;10.13;77.08;98285.91;234343;216;147651;-61
2023/11/21 06:19:21;;;;;;;11.40;6.20;;;;;;;10.36;76.84;98297.58;233977;215;141158;-60
2023/11/21 06:24:24;;;;;;;44.70;36.10;;;;;;;10.49;76.47;98301.80;234563;215;138067;-60
2023/11/21 06:29:27;;;;;;;114.40;94.80;;;;;;;10.58;76.24;98304.84;234292;213;148806;-62
2023/11/21 06:34:31;;;;;;;12.60;7.80;;;;;;;10.59;76.34;98301.61;234287;213;138799;-62
2023/11/21 06:39:35;;;;;;;5.30;3.90;;;;;;;10.57;76.40;98302.26;234340;215;142487;-63
2023/11/21 06:44:39;;;;;;;4.90;2.40;;;;;;;10.47;76.37;98310.16;234324;215;147258;-65
2023/11/21 06:49:42;;;;;;;3.40;2.60;;;;;;;10.43;76.59;98311.48;234283;215;138912;-62
2023/11/21 06:54:49;;;;;;;3.50;2.90;;;;;;;10.48;76.75;98311.68;234409;215;138640;-64
2023/11/21 06:59:52;;;;;;;6.30;3.60;;;;;;;10.49;76.79;98317.76;234267;215;147757;-63
2023/11/21 07:04:55;;;;;;;7.10;3.30;;;;;;;10.47;76.82;98322.89;234228;208;139817;-64
2023/11/21 07:10:02;;;;;;;7.00;3.90;;;;;;;10.45;76.83;98323.55;234166;213;140976;-63
2023/11/21 07:15:09;;;;;;;142.10;105.20;;;;;;;10.43;77.05;98330.46;234348;215;149066;-62
2023/11/21 07:20:13;;;;;;;9.10;5.60;;;;;;;10.46;77.34;98330.95;234233;216;139460;-63
2023/11/21 07:25:17;;;;;;;7.30;4.20;;;;;;;10.48;77.18;98335.23;234312;212;145794;-64
2023/11/21 07:30:22;;;;;;;7.70;4.60;;;;;;;10.51;77.13;98337.48;234432;214;147502;-64
2023/11/21 07:35:26;;;;;;;6.70;4.60;;;;;;;10.53;76.87;98338.55;234336;216;139733;-65
2023/11/21 07:40:29;;;;;;;8.10;4.90;;;;;;;10.49;76.82;98344.52;234279;213;137168;-64
2023/11/21 07:45:34;;;;;;;10.80;4.90;;;;;;;10.45;76.85;98342.33;234308;213;148136;-65
2023/11/21 07:50:37;;;;;;;8.50;4.50;;;;;;;10.43;76.96;98347.48;234248;216;140973;-63
2023/11/21 07:55:41;;;;;;;7.50;4.10;;;;;;;10.35;77.06;98351.02;234215;213;138880;-62
2023/11/21 08:00:44;;;;;;;7.10;4.80;;;;;;;10.41;77.31;98349.89;234364;216;148693;-64
2023/11/21 08:05:47;;;;;;;7.10;4.80;;;;;;;10.48;77.17;98349.94;233827;214;140228;-63
2023/11/21 08:10:57;;;;;;;8.10;5.30;;;;;;;10.49;77.13;98358.56;234243;209;138657;-62
2023/11/21 08:16:04;;;;;;;6.70;4.80;;;;;;;10.47;77.29;98359.08;234186;215;285835;-63
2023/11/21 08:21:08;;;;;;;7.80;5.10;;;;;;;10.52;77.35;98363.86;234226;216;139003;-64
2023/11/21 08:26:11;;;;;;;7.00;4.30;;;;;;;10.53;77.35;98369.09;234252;211;137718;-65
2023/11/21 08:31:14;;;;;;;6.70;4.80;;;;;;;10.56;77.36;98367.42;234265;216;260343;-64
2023/11/21 08:36:18;;;;;;;176.30;136.20;;;;;;;10.60;77.28;98368.20;234283;210;138857;-61
2023/11/21 08:41:21;;;;;;;8.20;6.00;;;;;;;10.67;77.70;98368.96;234155;212;141836;-63
2023/11/21 08:46:25;;;;;;;6.90;5.20;;;;;;;10.70;77.26;98370.34;234323;208;147579;-65
2023/11/21 08:51:29;;;;;;;8.40;3.80;;;;;;;10.73;76.94;98378.44;234334;216;139124;-62
2023/11/21 08:56:32;;;;;;;5.60;4.20;;;;;;;10.66;76.76;98384.10;234310;213;142625;-61
2023/11/21 09:01:36;;;;;;;6.50;4.70;;;;;;;10.63;76.90;98385.73;234143;213;147919;-61
2023/11/21 09:06:39;;;;;;;7.50;4.40;;;;;;;10.67;76.88;98386.73;234211;214;139505;-62
2023/11/21 09:11:44;;;;;;;7.80;5.40;;;;;;;10.69;76.83;98383.92;234263;216;137697;-61
2023/11/21 09:16:47;;;;;;;9.40;6.40;;;;;;;10.68;76.88;98383.27;234304;216;147521;-62
2023/11/21 09:21:50;;;;;;;10.80;6.00;;;;;;;10.66;76.91;98383.40;234243;216;140841;-63
2023/11/21 09:26:55;;;;;;;9.20;6.60;;;;;;;10.59;76.97;98382.48;234145;216;141420;-63
2023/11/21 09:31:59;;;;;;;156.50;115.50;;;;;;;10.57;77.03;98382.45;234262;213;148815;-61
2023/11/21 09:37:05;;;;;;;13.60;10.30;;;;;;;10.65;77.38;98376.69;234228;213;139145;-63
2023/11/21 09:42:12;;;;;;;12.90;9.40;;;;;;;10.72;76.94;98378.54;234317;216;138513;-59
2023/11/21 09:47:16;;;;;;;15.90;10.20;;;;;;;10.72;77.05;98382.95;234255;213;148416;-61
2023/11/21 09:52:25;;;;;;;14.90;10.40;;;;;;;10.76;77.00;98384.62;234231;216;138840;-62
2023/11/21 09:57:29;;;;;;;14.80;10.30;;;;;;;10.76;77.07;98389.59;234332;216;138342;-62
2023/11/21 10:02:36;;;;;;;15.10;9.70;;;;;;;10.73;76.82;98392.67;234299;215;148525;-64
2023/11/21 10:07:41;;;;;;;13.50;9.20;;;;;;;10.70;77.03;98388.80;234234;215;141467;-64
2023/11/21 10:12:49;;;;;;;15.60;10.10;;;;;;;10.78;76.84;98389.66;234382;212;138802;-62
2023/11/21 10:17:53;;;;;;;12.80;9.10;;;;;;;10.86;76.59;98388.69;234296;213;147751;-63
2023/11/21 10:22:59;;;;;;;110.90;77.70;;;;;;;10.96;76.29;98390.75;234211;213;142155;-65
2023/11/21 10:28:06;;;;;;;21.50;14.10;;;;;;;11.08;76.81;98393.40;233995;213;139146;-65
2023/11/21 10:33:11;;;;;;;16.50;11.70;;;;;;;11.15;75.70;98392.20;234161;213;147576;-65
2023/11/21 10:38:14;;;;;;;14.80;9.60;;;;;;;11.17;75.67;98391.84;234123;214;139325;-65
2023/11/21 10:43:18;;;;;;;11.90;8.40;;;;;;;11.18;74.91;98391.65;234176;213;141826;-65
2023/11/21 10:48:21;;;;;;;14.00;9.60;;;;;;;11.13;74.63;98390.71;234281;212;147330;-65
2023/11/21 10:53:28;;;;;;;14.80;10.50;;;;;;;11.11;74.92;98391.02;234175;212;138795;-67
2023/11/21 10:58:32;;;;;;;12.20;9.00;;;;;;;11.09;74.90;98389.40;234191;213;138659;-65
2023/11/21 11:03:36;;;;;;;329.80;271.70;;;;;;;11.15;75.25;98392.87;234125;216;147464;-62
2023/11/21 11:08:40;;;;;;;19.30;13.20;;;;;;;11.31;75.16;98384.61;234192;208;139666;-65
2023/11/21 11:13:45;;;;;;;13.70;9.10;;;;;;;11.27;73.91;98388.13;234236;213;138366;-63
2023/11/21 11:18:49;;;;;;;12.60;7.80;;;;;;;11.14;73.60;98388.39;234225;214;146425;-64
2023/11/21 11:24:24;;;;;;;9.00;6.90;;;;;;;11.04;73.62;98387.86;234148;213;139325;-63
2023/11/21 11:29:49;;;;;;;10.70;6.90;;;;;;;10.96;73.35;98390.45;234214;213;140883;-63
2023/11/21 11:35:04;;;;;;;10.30;7.00;;;;;;;10.96;73.37;98392.77;234128;213;148130;-63
2023/11/21 11:40:10;;;;;;;8.40;6.30;;;;;;;10.94;73.08;98395.72;234231;208;140462;-63
2023/11/21 11:45:19;;;;;;;10.10;6.50;;;;;;;10.85;73.18;98397.92;234256;214;139046;-62
2023/11/21 11:50:24;;;;;;;10.50;7.80;;;;;;;10.78;73.42;98401.86;234164;213;147859;-63
2023/11/21 11:55:30;;;;;;;11.50;8.00;;;;;;;10.79;73.95;98402.67;234165;213;140428;-63
2023/11/21 12:00:37;;;;;;;9.20;6.90;;;;;;;10.81;74.01;98408.75;234349;213;137260;-62
2023/11/21 12:05:43;;;;;;;12.50;6.90;;;;;;;10.87;73.90;98410.59;234091;213;147298;-62
2023/11/21 12:10:48;;;;;;;12.40;7.10;;;;;;;10.95;73.35;98408.23;234178;213;141002;-63
2023/11/21 12:15:51;;;;;;;11.50;7.60;;;;;;;11.03;73.09;98405.16;234053;213;137017;-63
2023/11/21 12:20:55;;;;;;;11.20;7.80;;;;;;;11.04;72.83;98410.02;234147;213;147626;-61
2023/11/21 12:25:58;;;;;;;9.90;7.40;;;;;;;11.08;72.66;98407.98;234109;213;140084;-63
2023/11/21 12:31:01;;;;;;;10.30;7.00;;;;;;;11.07;72.63;98410.85;234074;213;140886;-64
2023/11/21 12:36:17;;;;;;;10.50;6.40;;;;;;;11.04;72.85;98411.84;234202;213;147666;-62
2023/11/21 12:41:21;;;;;;;77.70;59.40;;;;;;;11.04;72.90;98413.77;234209;213;139131;-64
2023/11/21 12:46:28;;;;;;;17.80;10.20;;;;;;;11.10;73.14;98409.45;234214;213;138458;-62
2023/11/21 12:51:31;;;;;;;6.80;4.40;;;;;;;11.19;72.51;98407.36;234165;214;148384;-63
2023/11/21 12:56:38;;;;;;;8.70;4.80;;;;;;;11.19;71.86;98410.88;234175;208;138670;-63
2023/11/21 13:01:42;;;;;;;7.10;4.90;;;;;;;11.19;71.85;98411.46;234174;213;138261;-62
2023/11/21 13:06:46;;;;;;;9.90;5.60;;;;;;;11.19;72.00;98419.79;234370;212;148014;-61
2023/11/21 13:11:49;;;;;;;10.80;5.80;;;;;;;11.16;71.79;98416.59;234125;214;138822;-62
2023/11/21 13:16:53;;;;;;;11.90;6.70;;;;;;;11.07;71.30;98424.91;234120;213;142125;-63
2023/11/21 13:21:58;;;;;;;12.90;7.00;;;;;;;11.01;71.27;98425.58;234305;209;147380;-62
2023/11/21 13:27:01;;;;;;;13.10;7.00;;;;;;;10.97;71.54;98424.27;234192;213;151022;-63
2023/11/21 13:32:06;;;;;;;12.80;6.70;;;;;;;10.94;71.65;98424.49;234211;208;138125;-64
2023/11/21 13:37:09;;;;;;;22.50;13.10;;;;;;;10.97;72.50;98430.81;234122;212;147762;-65
2023/11/21 13:42:13;;;;;;;12.70;6.80;;;;;;;11.09;71.63;98430.11;234309;214;138591;-64
2023/11/21 13:47:16;;;;;;;12.40;6.80;;;;;;;11.19;71.50;98434.33;234231;213;137376;-63
2023/11/21 13:52:22;;;;;;;10.70;6.90;;;;;;;11.24;71.23;98443.52;234247;209;148380;-64
2023/11/21 13:57:27;;;;;;;10.10;5.80;;;;;;;11.24;70.52;98444.63;234163;213;139793;-64
2023/11/21 14:02:37;;;;;;;9.00;4.30;;;;;;;11.22;70.15;98444.59;234272;215;136776;-65
2023/11/21 14:07:47;;;;;;;6.90;3.60;;;;;;;11.17;69.63;98447.62;234221;213;147602;-64
2023/11/21 14:12:52;;;;;;;6.10;2.90;;;;;;;11.11;68.88;98448.89;234204;213;139344;-64
2023/11/21 14:17:55;;;;;;;3.80;2.60;;;;;;;11.13;68.59;98453.02;234299;213;138715;-64
2023/11/21 14:22:59;;;;;;;7.70;3.10;;;;;;;11.12;68.35;98456.14;234123;213;148059;-66
2023/11/21 14:28:04;;;;;;;7.30;3.20;;;;;;;11.04;68.54;98458.64;234151;214;140259;-64
2023/11/21 14:33:09;;;;;;;7.20;2.80;;;;;;;10.98;68.16;98465.31;234279;213;153636;-64
2023/11/21 14:38:14;;;;;;;4.40;2.70;;;;;;;10.89;68.02;98465.08;234134;213;148528;-65
2023/11/21 14:43:19;;;;;;;6.00;3.70;;;;;;;10.86;68.22;98470.14;234078;209;139554;-62
2023/11/21 14:53:54;;;;;;;83.70;56.00;;;;;;;10.80;68.73;98482.23;234136;208;147799;-62
2023/11/21 14:58:59;;;;;;;10.80;4.20;;;;;;;10.81;68.79;98485.58;234111;208;139666;-63
2023/11/21 15:04:05;;;;;;;55.70;43.20;;;;;;;10.75;69.08;98492.58;234137;209;138816;-63
2023/11/21 15:14:16;;;;;;;11.40;4.40;;;;;;;10.74;69.30;98500.06;234127;213;139631;-60
2023/11/21 15:19:25;;;;;;;7.90;4.40;;;;;;;10.65;69.57;98506.36;234181;213;138142;-61
2023/11/21 15:24:28;;;;;;;7.80;3.70;;;;;;;10.65;69.81;98511.87;234294;213;147415;-61
2023/11/21 15:29:31;;;;;;;7.50;4.30;;;;;;;10.63;69.90;98518.23;234146;212;139060;-61
2023/11/21 15:34:36;;;;;;;7.20;4.20;;;;;;;10.63;69.97;98521.94;234161;215;138239;-61
2023/11/21 15:39:39;;;;;;;8.00;4.60;;;;;;;10.65;69.97;98526.43;234230;208;148345;-61
2023/11/21 15:44:43;;;;;;;8.90;4.50;;;;;;;10.68;70.05;98530.31;234004;209;138745;-61
2023/11/21 15:49:47;;;;;;;10.40;4.10;;;;;;;10.70;69.98;98528.59;234113;213;137921;-54
2023/11/21 15:54:54;;;;;;;11.40;5.50;;;;;;;10.74;70.13;98531.32;234261;214;148759;-62
2023/11/21 15:59:57;;;;;;;8.30;4.60;;;;;;;10.71;69.75;98534.56;233967;213;140829;-61
2023/11/21 16:05:03;;;;;;;8.80;4.80;;;;;;;10.63;69.91;98537.91;234230;214;138222;-62
2023/11/21 16:10:14;;;;;;;9.30;4.30;;;;;;;10.55;70.00;98541.66;234258;215;147600;-62
2023/11/21 16:15:18;;;;;;;12.70;4.70;;;;;;;10.51;70.24;98544.60;234198;213;138856;-61
2023/11/21 16:20:21;;;;;;;9.00;4.50;;;;;;;10.50;70.29;98550.92;234301;215;138014;-62
2023/11/21 16:25:24;;;;;;;8.60;4.80;;;;;;;10.45;70.51;98547.17;234256;213;147512;-61
2023/11/21 16:30:27;;;;;;;11.50;4.90;;;;;;;10.46;70.55;98552.11;234361;214;138736;-60
2023/11/21 16:35:31;;;;;;;11.60;5.50;;;;;;;10.50;70.55;98556.42;234237;208;137101;-61
2023/11/21 16:40:34;;;;;;;11.80;5.40;;;;;;;10.54;70.48;98557.52;234237;212;147596;-62
2023/11/21 16:45:37;;;;;;;12.40;5.30;;;;;;;10.56;70.42;98561.86;234216;213;144832;-61
2023/11/21 16:50:44;;;;;;;9.10;5.60;;;;;;;10.56;70.52;98566.13;234248;216;137395;-61
2023/11/21 16:55:47;;;;;;;22.60;15.30;;;;;;;10.57;70.77;98573.29;234269;212;147487;-62
2023/11/21 17:00:52;;;;;;;12.10;7.10;;;;;;;10.61;70.84;98579.55;234377;216;139772;-63
2023/11/21 17:05:56;;;;;;;12.90;7.40;;;;;;;10.59;70.59;98587.23;234191;213;140692;-61
2023/11/21 17:11:00;;;;;;;12.20;7.80;;;;;;;10.51;70.72;98593.41;234259;213;148661;-62
2023/11/21 17:16:03;;;;;;;16.30;8.00;;;;;;;10.49;70.97;98602.59;234205;209;139490;-62
2023/11/21 17:21:06;;;;;;;12.50;8.80;;;;;;;10.52;71.16;98606.16;234256;214;138324;-61
2023/11/21 17:26:14;;;;;;;14.50;9.40;;;;;;;10.53;71.21;98605.69;234107;216;148612;-62
2023/11/21 17:31:18;;;;;;;14.70;10.10;;;;;;;10.53;71.50;98604.27;234242;213;138911;-62
2023/11/21 17:36:22;;;;;;;14.70;10.30;;;;;;;10.50;71.78;98607.48;234274;213;137784;-61
2023/11/21 17:41:25;;;;;;;25.40;14.90;;;;;;;10.49;72.28;98617.14;234244;213;147470;-62
2023/11/21 17:46:29;;;;;;;13.50;9.10;;;;;;;10.42;72.68;98624.39;234183;209;139481;-62
2023/11/21 17:51:37;;;;;;;12.70;8.50;;;;;;;10.37;73.14;98635.16;234310;215;138317;-62
2023/11/21 17:56:40;;;;;;;10.30;7.10;;;;;;;10.33;73.14;98643.23;234356;213;148163;-62
2023/11/21 18:01:46;;;;;;;64.30;50.40;;;;;;;10.31;72.98;98646.34;234244;213;138897;-62
2023/11/21 18:06:50;;;;;;;11.20;8.00;;;;;;;10.32;72.46;98651.42;234425;213;139343;-61
2023/11/21 18:11:53;;;;;;;12.00;7.60;;;;;;;10.23;71.74;98657.17;234200;213;147527;-61
2023/11/21 18:16:57;;;;;;;13.60;9.40;;;;;;;10.11;71.43;98666.08;234195;214;138993;-61
2023/11/21 18:22:00;;;;;;;15.30;10.50;;;;;;;9.94;71.19;98670.95;234319;213;137885;-61
2023/11/21 18:27:04;;;;;;;17.70;10.80;;;;;;;9.73;70.93;98674.80;234257;213;147755;-61
2023/11/21 18:32:10;;;;;;;13.60;9.30;;;;;;;9.51;70.78;98673.56;234256;215;139124;-61
2023/11/21 18:37:13;;;;;;;;;;;;;;;9.22;70.90;98684.91;234241;216;137690;-59
2023/11/21 18:42:17;;;;;;;12.00;8.50;;;;;;;9.07;71.15;98695.05;234120;213;148297;-60
2023/11/21 18:47:22;;;;;;;11.40;8.20;;;;;;;8.96;71.06;98699.08;234241;213;138808;-54
2023/11/21 18:52:27;;;;;;;13.40;7.50;;;;;;;8.89;71.07;98703.10;234185;212;137745;-56
2023/11/21 18:57:31;;;;;;;8.20;6.00;;;;;;;8.80;70.82;98710.35;234108;214;149701;-56
2023/11/21 19:02:35;;;;;;;9.00;6.20;;;;;;;8.70;70.31;98717.81;234061;213;140316;-59
2023/11/21 19:07:38;;;;;;;205.30;157.70;;;;;;;8.72;72.36;98729.05;234177;214;136829;-57
2023/11/21 19:12:42;;;;;;;12.50;8.20;;;;;;;8.92;70.24;98737.56;234312;213;147310;-57
2023/11/21 19:17:45;;;;;;;8.90;6.60;;;;;;;8.79;69.50;98743.48;234158;213;138793;-57
2023/11/21 19:22:49;;;;;;;11.00;7.20;;;;;;;8.64;69.40;98758.30;234063;214;136841;-58
2023/11/21 19:27:52;;;;;;;9.50;6.60;;;;;;;8.48;69.30;98769.87;234178;213;147518;-58
2023/11/21 19:32:59;;;;;;;9.50;6.20;;;;;;;8.30;69.07;98778.64;234127;213;139519;-56
2023/11/21 19:38:02;;;;;;;38.40;29.90;;;;;;;8.10;69.05;98790.58;234192;213;137892;-58
2023/11/21 19:43:05;;;;;;;27.20;20.80;;;;;;;8.05;70.62;98801.29;234139;213;147727;-57
2023/11/21 19:48:08;;;;;;;7.90;5.40;;;;;;;8.12;69.44;98806.14;234165;213;140712;-58
2023/11/21 19:53:12;;;;;;;7.80;5.20;;;;;;;8.00;68.80;98824.71;234167;213;138822;-58
2023/11/21 19:58:17;;;;;;;7.90;6.00;;;;;;;7.87;68.90;98828.02;234231;214;149029;-57
2023/11/21 20:03:21;;;;;;;5.90;5.10;;;;;;;7.75;69.00;98839.45;234056;213;146266;-57
2023/11/21 20:08:24;;;;;;;7.40;5.00;;;;;;;7.68;69.00;98855.55;234192;213;138612;-57
2023/11/21 20:13:28;;;;;;;6.90;4.40;;;;;;;7.59;69.06;98864.14;234124;212;146318;-57
2023/11/21 20:18:31;;;;;;;5.80;3.90;;;;;;;7.51;68.99;98872.52;234236;213;138810;-57
2023/11/21 20:23:36;;;;;;;57.00;38.60;;;;;;;7.43;68.90;98877.87;234174;215;138238;-57
2023/11/21 20:28:42;;;;;;;43.00;33.00;;;;;;;7.50;69.92;98886.48;234191;213;149742;-58
2023/11/21 20:33:47;;;;;;;6.50;3.90;;;;;;;7.53;68.70;98898.00;234149;213;138876;-56
2023/11/21 20:38:51;;;;;;;7.40;4.00;;;;;;;7.37;68.35;98905.52;234142;213;138467;-57
2023/11/21 20:43:55;;;;;;;6.20;3.60;;;;;;;7.23;68.38;98912.95;234151;213;149388;-56
2023/11/21 20:48:59;;;;;;;5.30;3.90;;;;;;;7.13;68.50;98923.84;234247;213;139357;-57
2023/11/21 20:54:04;;;;;;;496.20;385.60;;;;;;;7.09;68.79;98926.70;234231;213;248421;-62
2023/11/21 20:59:07;;;;;;;12.20;8.20;;;;;;;7.18;69.07;98925.91;234237;214;148028;-58
2023/11/21 21:04:11;;;;;;;5.80;4.70;;;;;;;7.12;67.87;98935.93;233300;212;138850;-58
2023/11/21 21:09:14;;;;;;;7.10;4.70;;;;;;;7.07;67.64;98942.70;234266;213;138279;-58
2023/11/21 21:14:17;;;;;;;7.40;4.90;;;;;;;7.00;67.56;98948.70;234286;208;148446;-58
2023/11/21 21:19:21;;;;;;;5.90;4.70;;;;;;;6.87;67.43;98954.76;234267;213;140121;-58
2023/11/21 21:24:24;;;;;;;7.50;4.70;;;;;;;6.80;67.47;98965.32;234427;208;137686;-58
2023/11/21 21:29:27;;;;;;;7.20;4.80;;;;;;;6.72;67.39;98960.78;234407;213;148260;-58
2023/11/21 21:34:31;;;;;;;7.50;4.70;;;;;;;6.66;67.60;98965.81;234197;213;139037;-59
2023/11/21 21:39:34;;;;;;;7.30;4.50;;;;;;;6.59;67.71;98978.31;234253;213;137709;-58
2023/11/21 21:44:39;;;;;;;5.30;4.00;;;;;;;6.51;67.64;98982.77;234361;215;147549;-59
2023/11/21 21:49:42;;;;;;;6.80;4.70;;;;;;;6.42;67.81;98993.90;234408;208;138597;-57
2023/11/21 21:54:46;;;;;;;6.40;4.20;;;;;;;6.35;67.94;99000.73;234412;213;139340;-58
2023/11/21 21:59:49;;;;;;;6.70;3.60;;;;;;;6.26;68.08;99007.87;234306;209;147543;-58
2023/11/21 22:04:52;;;;;;;4.80;3.80;;;;;;;6.23;67.92;99026.31;234341;213;139776;-58
2023/11/21 22:09:55;;;;;;;6.10;3.60;;;;;;;6.20;67.85;99037.02;234299;213;139045;-59
2023/11/21 22:14:59;;;;;;;4.00;3.10;;;;;;;6.14;67.51;99039.19;234226;213;148293;-59
2023/11/21 22:20:03;;;;;;;5.20;3.40;;;;;;;6.08;67.44;99047.04;234128;213;149842;-58
2023/11/21 22:25:07;;;;;;;4.50;3.50;;;;;;;6.04;67.46;99060.27;234205;213;136732;-58
2023/11/21 22:30:11;;;;;;;5.20;3.60;;;;;;;6.05;67.35;99071.31;234242;213;147637;-57
2023/11/21 22:35:14;;;;;;;8.80;5.60;;;;;;;6.08;67.47;99073.47;233915;212;138761;-59
2023/11/21 22:40:19;;;;;;;7.20;5.90;;;;;;;6.09;67.29;99087.15;234312;209;136798;-59
2023/11/21 22:45:22;;;;;;;8.80;6.30;;;;;;;6.03;66.78;99103.45;234243;213;147389;-60
2023/11/21 22:50:25;;;;;;;7.80;6.00;;;;;;;5.92;66.17;99114.43;234415;213;140330;-58
2023/11/21 22:55:29;;;;;;;7.60;6.10;;;;;;;5.82;66.01;99118.71;234408;208;137814;-59
2023/11/21 23:00:32;;;;;;;8.60;6.10;;;;;;;5.67;66.07;99120.91;234107;208;147287;-58
2023/11/21 23:05:36;;;;;;;9.40;6.50;;;;;;;5.55;66.24;99132.50;233977;212;138760;-58
2023/11/21 23:10:39;;;;;;;10.30;6.80;;;;;;;5.42;66.50;99144.81;233853;209;137205;-60
2023/11/21 23:15:46;;;;;;;9.00;6.40;;;;;;;5.30;66.85;99148.08;234419;215;147173;-58
2023/11/21 23:20:49;;;;;;;8.40;6.80;;;;;;;5.23;67.14;99155.05;234364;214;139449;-58
2023/11/21 23:25:54;;;;;;;9.40;8.20;;;;;;;5.19;67.15;99163.45;234276;214;136452;-58
2023/11/21 23:30:57;;;;;;;12.70;9.50;;;;;;;5.12;66.85;99176.74;234440;214;148566;-58
2023/11/21 23:36:01;;;;;;;13.90;10.70;;;;;;;5.03;66.87;99180.59;234242;213;140756;-59
2023/11/21 23:41:04;;;;;;;13.90;10.20;;;;;;;4.95;67.02;99179.27;234357;215;136836;-58